sensor_id;sensor_type;location;lat;lon;timestamp;temperature;humidity
22787;DHT22;63134;52.020;4.714;2023-02-26T00:01:15;2.90;81.60
22787;DHT22;63134;52.020;4.714;2023-02-26T00:04:05;2.90;81.80
22787;DHT22;63134;52.020;4.714;2023-02-26T00:06:51;2.90;81.80
22787;DHT22;63134;52.020;4.714;2023-02-26T00:09:44;2.90;81.90
22787;DHT22;63134;52.020;4.714;2023-02-26T00:12:30;2.80;81.80
22787;DHT22;63134;52.020;4.714;2023-02-26T00:15:36;2.80;81.90
22787;DHT22;63134;52.020;4.714;2023-02-26T00:18:22;2.80;82.30
22787;DHT22;63134;52.020;4.714;2023-02-26T00:21:17;2.80;82.60
22787;DHT22;63134;52.020;4.714;2023-02-26T00:24:03;2.80;82.50
22787;DHT22;63134;52.020;4.714;2023-02-26T00:26:50;2.70;82.60
22787;DHT22;63134;52.020;4.714;2023-02-26T00:29:36;2.70;82.90
22787;DHT22;63134;52.020;4.714;2023-02-26T00:32:37;2.70;83.20
22787;DHT22;63134;52.020;4.714;2023-02-26T00:35:24;2.70;83.60
22787;DHT22;63134;52.020;4.714;2023-02-26T00:38:10;2.70;83.80
22787;DHT22;63134;52.020;4.714;2023-02-26T00:40:58;2.70;84.20
22787;DHT22;63134;52.020;4.714;2023-02-26T00:43:44;2.80;84.50
22787;DHT22;63134;52.020;4.714;2023-02-26T00:50:04;2.90;85.00
22787;DHT22;63134;52.020;4.714;2023-02-26T00:53:14;3.10;85.10
22787;DHT22;63134;52.020;4.714;2023-02-26T00:56:03;3.10;84.90
22787;DHT22;63134;52.020;4.714;2023-02-26T00:58:49;3.30;84.60
22787;DHT22;63134;52.020;4.714;2023-02-26T01:01:39;3.40;84.30
22787;DHT22;63134;52.020;4.714;2023-02-26T01:04:28;3.40;84.00
22787;DHT22;63134;52.020;4.714;2023-02-26T01:07:14;3.50;83.60
22787;DHT22;63134;52.020;4.714;2023-02-26T01:10:06;3.60;83.30
22787;DHT22;63134;52.020;4.714;2023-02-26T01:12:53;3.70;83.00
22787;DHT22;63134;52.020;4.714;2023-02-26T01:15:45;3.70;82.60
22787;DHT22;63134;52.020;4.714;2023-02-26T01:18:40;3.70;82.30
22787;DHT22;63134;52.020;4.714;2023-02-26T01:21:35;3.80;82.90
22787;DHT22;63134;52.020;4.714;2023-02-26T01:24:24;3.80;81.80
22787;DHT22;63134;52.020;4.714;2023-02-26T01:27:10;3.80;81.70
22787;DHT22;63134;52.020;4.714;2023-02-26T01:29:56;3.70;81.70
22787;DHT22;63134;52.020;4.714;2023-02-26T01:33:16;3.70;81.60
22787;DHT22;63134;52.020;4.714;2023-02-26T01:36:19;3.70;81.40
22787;DHT22;63134;52.020;4.714;2023-02-26T01:39:46;3.80;81.30
22787;DHT22;63134;52.020;4.714;2023-02-26T01:42:26;3.70;80.80
22787;DHT22;63134;52.020;4.714;2023-02-26T01:45:34;3.70;80.20
22787;DHT22;63134;52.020;4.714;2023-02-26T01:48:42;3.60;79.50
22787;DHT22;63134;52.020;4.714;2023-02-26T01:51:52;3.60;78.70
22787;DHT22;63134;52.020;4.714;2023-02-26T01:54:38;3.50;78.00
22787;DHT22;63134;52.020;4.714;2023-02-26T01:57:27;3.40;77.50
22787;DHT22;63134;52.020;4.714;2023-02-26T02:00:14;3.30;77.40
22787;DHT22;63134;52.020;4.714;2023-02-26T02:03:00;3.30;77.30
22787;DHT22;63134;52.020;4.714;2023-02-26T02:05:57;3.20;77.00
22787;DHT22;63134;52.020;4.714;2023-02-26T02:08:45;3.20;76.70
22787;DHT22;63134;52.020;4.714;2023-02-26T02:11:32;3.10;76.10
22787;DHT22;63134;52.020;4.714;2023-02-26T02:29:56;2.90;75.60
22787;DHT22;63134;52.020;4.714;2023-02-26T02:32:58;2.80;75.60
22787;DHT22;63134;52.020;4.714;2023-02-26T02:35:55;2.80;75.80
22787;DHT22;63134;52.020;4.714;2023-02-26T02:38:48;2.80;76.50
22787;DHT22;63134;52.020;4.714;2023-02-26T02:41:47;2.70;75.70
22787;DHT22;63134;52.020;4.714;2023-02-26T02:44:38;2.60;75.80
22787;DHT22;63134;52.020;4.714;2023-02-26T02:47:25;2.60;75.90
22787;DHT22;63134;52.020;4.714;2023-02-26T02:50:38;2.60;75.90
22787;DHT22;63134;52.020;4.714;2023-02-26T02:53:51;2.50;75.90
22787;DHT22;63134;52.020;4.714;2023-02-26T02:56:44;2.60;76.20
22787;DHT22;63134;52.020;4.714;2023-02-26T02:59:38;2.50;77.20
22787;DHT22;63134;52.020;4.714;2023-02-26T03:05:29;2.50;76.40
22787;DHT22;63134;52.020;4.714;2023-02-26T03:08:18;2.40;76.20
22787;DHT22;63134;52.020;4.714;2023-02-26T03:11:05;2.40;76.40
22787;DHT22;63134;52.020;4.714;2023-02-26T03:13:51;2.40;76.30
22787;DHT22;63134;52.020;4.714;2023-02-26T03:20:25;1.80;81.00
22787;DHT22;63134;52.020;4.714;2023-02-26T03:23:32;2.30;75.40
22787;DHT22;63134;52.020;4.714;2023-02-26T03:26:25;2.30;76.00
22787;DHT22;63134;52.020;4.714;2023-02-26T03:32:28;2.20;75.60
22787;DHT22;63134;52.020;4.714;2023-02-26T03:35:37;2.20;76.20
22787;DHT22;63134;52.020;4.714;2023-02-26T03:38:31;2.20;76.10
22787;DHT22;63134;52.020;4.714;2023-02-26T03:41:28;2.10;76.30
22787;DHT22;63134;52.020;4.714;2023-02-26T03:44:23;2.20;76.70
22787;DHT22;63134;52.020;4.714;2023-02-26T03:47:13;2.20;76.70
22787;DHT22;63134;52.020;4.714;2023-02-26T03:50:03;2.10;76.50
22787;DHT22;63134;52.020;4.714;2023-02-26T03:52:57;2.10;76.80
22787;DHT22;63134;52.020;4.714;2023-02-26T03:59:17;2.20;77.10
22787;DHT22;63134;52.020;4.714;2023-02-26T04:02:24;2.20;76.80
22787;DHT22;63134;52.020;4.714;2023-02-26T04:05:19;2.10;76.90
22787;DHT22;63134;52.020;4.714;2023-02-26T04:08:15;2.10;76.70
22787;DHT22;63134;52.020;4.714;2023-02-26T04:11:14;2.00;76.90
22787;DHT22;63134;52.020;4.714;2023-02-26T04:14:03;2.10;77.20
22787;DHT22;63134;52.020;4.714;2023-02-26T04:16:53;2.10;77.00
22787;DHT22;63134;52.020;4.714;2023-02-26T04:19:39;2.00;77.00
22787;DHT22;63134;52.020;4.714;2023-02-26T04:22:25;2.00;77.10
22787;DHT22;63134;52.020;4.714;2023-02-26T04:25:14;1.90;77.20
22787;DHT22;63134;52.020;4.714;2023-02-26T04:27:59;1.90;77.20
22787;DHT22;63134;52.020;4.714;2023-02-26T04:30:45;1.90;77.50
22787;DHT22;63134;52.020;4.714;2023-02-26T04:33:33;1.90;77.20
22787;DHT22;63134;52.020;4.714;2023-02-26T04:36:21;1.90;77.70
22787;DHT22;63134;52.020;4.714;2023-02-26T04:39:10;1.90;77.80
22787;DHT22;63134;52.020;4.714;2023-02-26T04:41:56;1.80;77.70
22787;DHT22;63134;52.020;4.714;2023-02-26T04:44:42;1.80;77.70
22787;DHT22;63134;52.020;4.714;2023-02-26T04:47:30;1.80;77.70
22787;DHT22;63134;52.020;4.714;2023-02-26T04:50:16;1.80;77.90
22787;DHT22;63134;52.020;4.714;2023-02-26T04:53:03;1.80;77.80
22787;DHT22;63134;52.020;4.714;2023-02-26T04:55:50;1.80;77.70
22787;DHT22;63134;52.020;4.714;2023-02-26T04:58:36;1.70;77.40
22787;DHT22;63134;52.020;4.714;2023-02-26T05:01:26;1.70;77.50
22787;DHT22;63134;52.020;4.714;2023-02-26T05:04:13;1.70;77.30
22787;DHT22;63134;52.020;4.714;2023-02-26T05:07:03;1.60;77.20
22787;DHT22;63134;52.020;4.714;2023-02-26T05:09:49;1.60;77.10
22787;DHT22;63134;52.020;4.714;2023-02-26T05:12:35;1.60;77.40
22787;DHT22;63134;52.020;4.714;2023-02-26T05:15:20;1.60;77.20
22787;DHT22;63134;52.020;4.714;2023-02-26T05:18:06;1.60;77.30
22787;DHT22;63134;52.020;4.714;2023-02-26T05:20:55;1.50;76.90
22787;DHT22;63134;52.020;4.714;2023-02-26T05:23:41;1.50;77.50
22787;DHT22;63134;52.020;4.714;2023-02-26T05:26:28;1.50;77.50
22787;DHT22;63134;52.020;4.714;2023-02-26T05:29:21;1.50;77.50
22787;DHT22;63134;52.020;4.714;2023-02-26T05:32:07;1.40;77.50
22787;DHT22;63134;52.020;4.714;2023-02-26T05:34:53;1.50;77.80
22787;DHT22;63134;52.020;4.714;2023-02-26T05:37:39;1.40;77.80
22787;DHT22;63134;52.020;4.714;2023-02-26T05:40:29;1.50;76.90
22787;DHT22;63134;52.020;4.714;2023-02-26T05:43:14;1.40;77.60
22787;DHT22;63134;52.020;4.714;2023-02-26T05:46:00;1.50;77.80
22787;DHT22;63134;52.020;4.714;2023-02-26T05:48:46;1.40;77.60
22787;DHT22;63134;52.020;4.714;2023-02-26T05:51:32;1.50;77.90
22787;DHT22;63134;52.020;4.714;2023-02-26T05:54:18;1.40;77.60
22787;DHT22;63134;52.020;4.714;2023-02-26T05:57:04;1.40;77.40
22787;DHT22;63134;52.020;4.714;2023-02-26T05:59:50;1.50;77.10
22787;DHT22;63134;52.020;4.714;2023-02-26T06:02:35;1.50;77.00
22787;DHT22;63134;52.020;4.714;2023-02-26T06:05:21;1.50;76.50
22787;DHT22;63134;52.020;4.714;2023-02-26T06:08:06;1.50;76.20
22787;DHT22;63134;52.020;4.714;2023-02-26T06:10:52;1.50;76.00
22787;DHT22;63134;52.020;4.714;2023-02-26T06:13:37;1.50;75.90
22787;DHT22;63134;52.020;4.714;2023-02-26T06:16:23;1.40;75.70
22787;DHT22;63134;52.020;4.714;2023-02-26T06:19:09;1.40;75.80
22787;DHT22;63134;52.020;4.714;2023-02-26T06:21:58;1.40;75.80
22787;DHT22;63134;52.020;4.714;2023-02-26T06:24:44;1.40;75.70
22787;DHT22;63134;52.020;4.714;2023-02-26T06:27:32;1.40;75.80
22787;DHT22;63134;52.020;4.714;2023-02-26T06:30:17;1.40;75.60
22787;DHT22;63134;52.020;4.714;2023-02-26T06:33:03;1.50;75.50
22787;DHT22;63134;52.020;4.714;2023-02-26T06:35:49;1.50;75.30
22787;DHT22;63134;52.020;4.714;2023-02-26T06:38:35;1.50;75.20
22787;DHT22;63134;52.020;4.714;2023-02-26T06:41:20;1.50;75.20
22787;DHT22;63134;52.020;4.714;2023-02-26T06:44:09;1.50;75.10
22787;DHT22;63134;52.020;4.714;2023-02-26T06:46:56;1.60;75.10
22787;DHT22;63134;52.020;4.714;2023-02-26T06:49:41;1.70;74.70
22787;DHT22;63134;52.020;4.714;2023-02-26T06:52:27;1.70;74.70
22787;DHT22;63134;52.020;4.714;2023-02-26T06:55:12;1.80;74.60
22787;DHT22;63134;52.020;4.714;2023-02-26T06:57:58;1.80;74.50
22787;DHT22;63134;52.020;4.714;2023-02-26T07:00:44;1.70;74.40
22787;DHT22;63134;52.020;4.714;2023-02-26T07:03:30;1.70;74.70
22787;DHT22;63134;52.020;4.714;2023-02-26T07:06:18;1.70;74.90
22787;DHT22;63134;52.020;4.714;2023-02-26T07:09:22;1.70;75.10
22787;DHT22;63134;52.020;4.714;2023-02-26T07:12:09;1.70;75.20
22787;DHT22;63134;52.020;4.714;2023-02-26T07:14:58;1.70;75.10
22787;DHT22;63134;52.020;4.714;2023-02-26T07:17:44;1.70;75.30
22787;DHT22;63134;52.020;4.714;2023-02-26T07:20:29;1.80;75.50
22787;DHT22;63134;52.020;4.714;2023-02-26T07:23:15;1.80;75.50
22787;DHT22;63134;52.020;4.714;2023-02-26T07:26:04;1.90;75.70
22787;DHT22;63134;52.020;4.714;2023-02-26T07:28:50;1.90;75.60
22787;DHT22;63134;52.020;4.714;2023-02-26T07:31:35;1.90;75.40
22787;DHT22;63134;52.020;4.714;2023-02-26T07:34:21;2.00;75.40
22787;DHT22;63134;52.020;4.714;2023-02-26T07:37:07;2.00;75.40
22787;DHT22;63134;52.020;4.714;2023-02-26T07:39:52;2.10;75.30
22787;DHT22;63134;52.020;4.714;2023-02-26T07:42:38;2.10;75.40
22787;DHT22;63134;52.020;4.714;2023-02-26T07:45:23;2.10;75.30
22787;DHT22;63134;52.020;4.714;2023-02-26T07:48:09;2.20;75.30
22787;DHT22;63134;52.020;4.714;2023-02-26T07:50:54;2.20;75.00
22787;DHT22;63134;52.020;4.714;2023-02-26T07:53:43;2.20;74.90
22787;DHT22;63134;52.020;4.714;2023-02-26T07:56:28;2.20;74.90
22787;DHT22;63134;52.020;4.714;2023-02-26T07:59:14;2.30;75.00
22787;DHT22;63134;52.020;4.714;2023-02-26T08:01:59;2.40;74.90
22787;DHT22;63134;52.020;4.714;2023-02-26T08:04:44;2.40;74.80
22787;DHT22;63134;52.020;4.714;2023-02-26T08:07:30;2.40;74.50
22787;DHT22;63134;52.020;4.714;2023-02-26T08:10:21;2.50;74.20
22787;DHT22;63134;52.020;4.714;2023-02-26T08:13:07;2.50;73.80
22787;DHT22;63134;52.020;4.714;2023-02-26T08:15:53;2.50;73.70
22787;DHT22;63134;52.020;4.714;2023-02-26T08:18:39;2.60;73.70
22787;DHT22;63134;52.020;4.714;2023-02-26T08:21:26;2.60;73.40
22787;DHT22;63134;52.020;4.714;2023-02-26T08:24:11;2.70;73.40
22787;DHT22;63134;52.020;4.714;2023-02-26T08:26:57;2.70;73.40
22787;DHT22;63134;52.020;4.714;2023-02-26T08:29:43;2.80;73.40
22787;DHT22;63134;52.020;4.714;2023-02-26T08:32:30;2.80;73.00
22787;DHT22;63134;52.020;4.714;2023-02-26T08:35:19;2.90;72.70
22787;DHT22;63134;52.020;4.714;2023-02-26T08:38:04;2.90;72.50
22787;DHT22;63134;52.020;4.714;2023-02-26T08:40:50;3.00;72.10
22787;DHT22;63134;52.020;4.714;2023-02-26T08:43:36;3.00;72.70
22787;DHT22;63134;52.020;4.714;2023-02-26T08:46:22;3.10;72.00
22787;DHT22;63134;52.020;4.714;2023-02-26T08:49:10;3.20;71.70
22787;DHT22;63134;52.020;4.714;2023-02-26T08:51:57;3.40;68.20
22787;DHT22;63134;52.020;4.714;2023-02-26T08:54:42;3.50;67.50
22787;DHT22;63134;52.020;4.714;2023-02-26T08:57:27;3.60;65.80
22787;DHT22;63134;52.020;4.714;2023-02-26T09:00:14;3.70;64.70
22787;DHT22;63134;52.020;4.714;2023-02-26T09:03:02;3.80;64.70
22787;DHT22;63134;52.020;4.714;2023-02-26T09:05:50;3.90;63.90
22787;DHT22;63134;52.020;4.714;2023-02-26T09:08:37;3.90;63.40
22787;DHT22;63134;52.020;4.714;2023-02-26T09:11:24;4.00;63.00
22787;DHT22;63134;52.020;4.714;2023-02-26T09:14:13;4.10;62.90
22787;DHT22;63134;52.020;4.714;2023-02-26T09:16:59;4.10;62.90
22787;DHT22;63134;52.020;4.714;2023-02-26T09:19:47;4.20;62.70
22787;DHT22;63134;52.020;4.714;2023-02-26T09:22:33;4.40;62.00
22787;DHT22;63134;52.020;4.714;2023-02-26T09:25:19;4.30;61.10
22787;DHT22;63134;52.020;4.714;2023-02-26T09:28:05;4.70;60.80
22787;DHT22;63134;52.020;4.714;2023-02-26T09:30:52;4.30;60.10
22787;DHT22;63134;52.020;4.714;2023-02-26T09:33:37;4.40;59.50
22787;DHT22;63134;52.020;4.714;2023-02-26T09:36:23;4.50;59.40
22787;DHT22;63134;52.020;4.714;2023-02-26T09:39:13;4.60;58.50
22787;DHT22;63134;52.020;4.714;2023-02-26T09:45:29;4.70;57.80
22787;DHT22;63134;52.020;4.714;2023-02-26T09:48:18;4.60;57.60
22787;DHT22;63134;52.020;4.714;2023-02-26T09:51:08;5.40;58.20
22787;DHT22;63134;52.020;4.714;2023-02-26T09:53:56;4.70;57.40
22787;DHT22;63134;52.020;4.714;2023-02-26T09:56:46;4.80;57.30
22787;DHT22;63134;52.020;4.714;2023-02-26T09:59:35;4.80;57.30
22787;DHT22;63134;52.020;4.714;2023-02-26T10:02:31;4.90;56.90
22787;DHT22;63134;52.020;4.714;2023-02-26T10:05:25;4.90;57.30
22787;DHT22;63134;52.020;4.714;2023-02-26T10:08:17;5.00;57.70
22787;DHT22;63134;52.020;4.714;2023-02-26T10:14:09;5.10;57.50
22787;DHT22;63134;52.020;4.714;2023-02-26T10:17:04;5.20;57.40
22787;DHT22;63134;52.020;4.714;2023-02-26T10:19:55;5.30;57.00
22787;DHT22;63134;52.020;4.714;2023-02-26T10:22:47;5.30;56.80
22787;DHT22;63134;52.020;4.714;2023-02-26T10:25:41;5.40;57.10
22787;DHT22;63134;52.020;4.714;2023-02-26T10:31:56;5.50;56.50
22787;DHT22;63134;52.020;4.714;2023-02-26T10:35:13;5.60;56.90
22787;DHT22;63134;52.020;4.714;2023-02-26T10:38:05;5.80;56.30
22787;DHT22;63134;52.020;4.714;2023-02-26T10:41:14;5.80;55.90
22787;DHT22;63134;52.020;4.714;2023-02-26T10:44:15;5.90;55.50
22787;DHT22;63134;52.020;4.714;2023-02-26T10:50:08;6.10;55.00
22787;DHT22;63134;52.020;4.714;2023-02-26T10:52:55;6.20;54.90
22787;DHT22;63134;52.020;4.714;2023-02-26T10:56:19;6.30;54.90
22787;DHT22;63134;52.020;4.714;2023-02-26T10:59:08;6.30;54.60
22787;DHT22;63134;52.020;4.714;2023-02-26T11:01:54;6.50;54.60
22787;DHT22;63134;52.020;4.714;2023-02-26T11:04:40;6.50;54.60
22787;DHT22;63134;52.020;4.714;2023-02-26T11:07:28;6.70;55.00
22787;DHT22;63134;52.020;4.714;2023-02-26T11:10:19;6.90;54.80
22787;DHT22;63134;52.020;4.714;2023-02-26T11:13:06;7.00;54.20
22787;DHT22;63134;52.020;4.714;2023-02-26T11:15:55;7.20;54.20
22787;DHT22;63134;52.020;4.714;2023-02-26T11:18:47;7.40;53.90
22787;DHT22;63134;52.020;4.714;2023-02-26T11:21:37;7.60;53.30
22787;DHT22;63134;52.020;4.714;2023-02-26T11:24:34;7.80;53.00
22787;DHT22;63134;52.020;4.714;2023-02-26T11:27:29;8.10;53.00
22787;DHT22;63134;52.020;4.714;2023-02-26T11:30:17;8.40;52.20
22787;DHT22;63134;52.020;4.714;2023-02-26T11:33:12;8.80;51.50
22787;DHT22;63134;52.020;4.714;2023-02-26T11:36:02;9.10;50.40
22787;DHT22;63134;52.020;4.714;2023-02-26T11:39:02;9.70;50.70
22787;DHT22;63134;52.020;4.714;2023-02-26T11:41:52;10.50;49.80
22787;DHT22;63134;52.020;4.714;2023-02-26T11:44:43;11.30;49.20
22787;DHT22;63134;52.020;4.714;2023-02-26T11:47:30;12.10;46.30
22787;DHT22;63134;52.020;4.714;2023-02-26T11:50:20;12.60;43.90
22787;DHT22;63134;52.020;4.714;2023-02-26T11:53:16;13.10;42.20
22787;DHT22;63134;52.020;4.714;2023-02-26T11:56:19;13.50;40.80
22787;DHT22;63134;52.020;4.714;2023-02-26T11:59:20;13.90;40.30
22787;DHT22;63134;52.020;4.714;2023-02-26T12:02:13;14.50;38.50
22787;DHT22;63134;52.020;4.714;2023-02-26T12:05:05;15.00;36.50
22787;DHT22;63134;52.020;4.714;2023-02-26T12:07:51;15.60;34.90
22787;DHT22;63134;52.020;4.714;2023-02-26T12:10:45;16.10;34.70
22787;DHT22;63134;52.020;4.714;2023-02-26T12:16:39;17.30;33.20
22787;DHT22;63134;52.020;4.714;2023-02-26T12:22:25;17.40;30.50
22787;DHT22;63134;52.020;4.714;2023-02-26T12:31:36;18.00;29.40
22787;DHT22;63134;52.020;4.714;2023-02-26T12:37:54;18.60;28.40
22787;DHT22;63134;52.020;4.714;2023-02-26T12:54:50;21.00;26.60
22787;DHT22;63134;52.020;4.714;2023-02-26T12:57:46;22.10;25.50
22787;DHT22;63134;52.020;4.714;2023-02-26T13:03:58;23.20;25.40
22787;DHT22;63134;52.020;4.714;2023-02-26T13:19:11;21.70;25.10
22787;DHT22;63134;52.020;4.714;2023-02-26T13:22:07;20.60;26.10
22787;DHT22;63134;52.020;4.714;2023-02-26T13:25:32;21.10;27.70
22787;DHT22;63134;52.020;4.714;2023-02-26T13:31:44;22.80;25.30
22787;DHT22;63134;52.020;4.714;2023-02-26T13:34:58;23.50;24.20
22787;DHT22;63134;52.020;4.714;2023-02-26T13:37:48;23.90;23.70
22787;DHT22;63134;52.020;4.714;2023-02-26T13:40:44;23.70;23.30
22787;DHT22;63134;52.020;4.714;2023-02-26T13:44:05;23.40;23.80
22787;DHT22;63134;52.020;4.714;2023-02-26T13:59:28;23.60;23.50
22787;DHT22;63134;52.020;4.714;2023-02-26T14:11:45;25.40;22.70
22787;DHT22;63134;52.020;4.714;2023-02-26T14:14:42;24.90;22.60
22787;DHT22;63134;52.020;4.714;2023-02-26T14:17:36;24.80;22.50
22787;DHT22;63134;52.020;4.714;2023-02-26T14:20:25;24.90;22.60
22787;DHT22;63134;52.020;4.714;2023-02-26T14:23:37;24.20;22.60
22787;DHT22;63134;52.020;4.714;2023-02-26T14:26:24;24.40;23.20
22787;DHT22;63134;52.020;4.714;2023-02-26T14:29:20;24.50;22.50
22787;DHT22;63134;52.020;4.714;2023-02-26T14:34:58;25.00;22.40
22787;DHT22;63134;52.020;4.714;2023-02-26T14:37:55;25.00;22.00
22787;DHT22;63134;52.020;4.714;2023-02-26T14:40:46;24.90;21.90
22787;DHT22;63134;52.020;4.714;2023-02-26T14:43:44;25.10;22.00
22787;DHT22;63134;52.020;4.714;2023-02-26T14:46:35;25.50;21.90
22787;DHT22;63134;52.020;4.714;2023-02-26T14:49:33;25.80;22.00
22787;DHT22;63134;52.020;4.714;2023-02-26T14:52:35;26.10;21.30
22787;DHT22;63134;52.020;4.714;2023-02-26T14:59:19;26.70;20.60
22787;DHT22;63134;52.020;4.714;2023-02-26T15:05:13;26.60;20.70
22787;DHT22;63134;52.020;4.714;2023-02-26T15:14:51;26.50;20.30
22787;DHT22;63134;52.020;4.714;2023-02-26T15:24:32;26.60;20.30
22787;DHT22;63134;52.020;4.714;2023-02-26T15:27:21;26.80;20.50
22787;DHT22;63134;52.020;4.714;2023-02-26T15:30:13;27.20;20.60
22787;DHT22;63134;52.020;4.714;2023-02-26T15:33:03;27.10;19.80
22787;DHT22;63134;52.020;4.714;2023-02-26T15:35:51;26.50;19.60
22787;DHT22;63134;52.020;4.714;2023-02-26T15:38:45;26.00;19.90
22787;DHT22;63134;52.020;4.714;2023-02-26T15:41:31;25.70;20.30
22787;DHT22;63134;52.020;4.714;2023-02-26T15:44:24;25.50;20.30
22787;DHT22;63134;52.020;4.714;2023-02-26T15:47:13;25.30;20.60
22787;DHT22;63134;52.020;4.714;2023-02-26T15:50:00;25.40;20.50
22787;DHT22;63134;52.020;4.714;2023-02-26T15:52:49;25.60;20.50
22787;DHT22;63134;52.020;4.714;2023-02-26T15:55:38;25.60;20.60
22787;DHT22;63134;52.020;4.714;2023-02-26T15:58:49;25.60;20.30
22787;DHT22;63134;52.020;4.714;2023-02-26T16:01:34;25.20;20.80
22787;DHT22;63134;52.020;4.714;2023-02-26T16:04:44;24.60;21.40
22787;DHT22;63134;52.020;4.714;2023-02-26T16:07:30;24.10;21.40
22787;DHT22;63134;52.020;4.714;2023-02-26T16:10:40;23.40;22.20
22787;DHT22;63134;52.020;4.714;2023-02-26T16:13:32;22.60;23.20
22787;DHT22;63134;52.020;4.714;2023-02-26T16:16:25;22.00;23.80
22787;DHT22;63134;52.020;4.714;2023-02-26T16:19:17;21.60;24.40
22787;DHT22;63134;52.020;4.714;2023-02-26T16:22:22;21.10;24.80
22787;DHT22;63134;52.020;4.714;2023-02-26T16:28:30;19.90;26.20
22787;DHT22;63134;52.020;4.714;2023-02-26T16:31:19;19.60;26.50
22787;DHT22;63134;52.020;4.714;2023-02-26T16:46:46;16.80;30.50
22787;DHT22;63134;52.020;4.714;2023-02-26T16:49:34;16.20;31.80
22787;DHT22;63134;52.020;4.714;2023-02-26T16:52:23;15.20;33.00
22787;DHT22;63134;52.020;4.714;2023-02-26T16:55:11;13.70;36.00
22787;DHT22;63134;52.020;4.714;2023-02-26T16:58:04;12.40;39.20
22787;DHT22;63134;52.020;4.714;2023-02-26T17:01:01;11.40;41.80
22787;DHT22;63134;52.020;4.714;2023-02-26T17:03:50;10.50;44.00
22787;DHT22;63134;52.020;4.714;2023-02-26T17:06:50;9.80;45.80
22787;DHT22;63134;52.020;4.714;2023-02-26T17:09:39;9.30;47.40
22787;DHT22;63134;52.020;4.714;2023-02-26T17:12:47;8.80;48.60
22787;DHT22;63134;52.020;4.714;2023-02-26T17:15:37;8.40;49.80
22787;DHT22;63134;52.020;4.714;2023-02-26T17:18:23;8.00;51.10
22787;DHT22;63134;52.020;4.714;2023-02-26T17:21:09;7.70;52.10
22787;DHT22;63134;52.020;4.714;2023-02-26T17:23:55;7.40;53.00
22787;DHT22;63134;52.020;4.714;2023-02-26T17:26:40;7.20;53.90
22787;DHT22;63134;52.020;4.714;2023-02-26T17:29:36;7.00;54.80
22787;DHT22;63134;52.020;4.714;2023-02-26T17:32:24;6.80;55.90
22787;DHT22;63134;52.020;4.714;2023-02-26T17:35:14;6.60;56.80
22787;DHT22;63134;52.020;4.714;2023-02-26T17:38:00;6.40;57.50
22787;DHT22;63134;52.020;4.714;2023-02-26T17:40:45;6.30;58.50
22787;DHT22;63134;52.020;4.714;2023-02-26T17:43:41;6.20;59.00
22787;DHT22;63134;52.020;4.714;2023-02-26T17:46:27;6.00;59.50
22787;DHT22;63134;52.020;4.714;2023-02-26T17:49:12;5.90;60.30
22787;DHT22;63134;52.020;4.714;2023-02-26T17:51:58;5.80;61.30
22787;DHT22;63134;52.020;4.714;2023-02-26T17:54:44;5.70;61.70
22787;DHT22;63134;52.020;4.714;2023-02-26T17:57:29;5.60;62.40
22787;DHT22;63134;52.020;4.714;2023-02-26T18:00:16;5.60;63.10
22787;DHT22;63134;52.020;4.714;2023-02-26T18:03:01;5.40;63.30
22787;DHT22;63134;52.020;4.714;2023-02-26T18:05:48;5.40;64.20
22787;DHT22;63134;52.020;4.714;2023-02-26T18:08:34;5.30;64.60
22787;DHT22;63134;52.020;4.714;2023-02-26T18:11:20;5.30;64.90
22787;DHT22;63134;52.020;4.714;2023-02-26T18:14:10;5.20;65.20
22787;DHT22;63134;52.020;4.714;2023-02-26T18:16:56;5.20;66.20
22787;DHT22;63134;52.020;4.714;2023-02-26T18:19:41;5.10;66.20
22787;DHT22;63134;52.020;4.714;2023-02-26T18:22:30;5.10;66.50
22787;DHT22;63134;52.020;4.714;2023-02-26T18:25:16;5.00;66.70
22787;DHT22;63134;52.020;4.714;2023-02-26T18:28:02;4.90;67.40
22787;DHT22;63134;52.020;4.714;2023-02-26T18:30:52;4.90;67.80
22787;DHT22;63134;52.020;4.714;2023-02-26T18:33:38;4.80;68.10
22787;DHT22;63134;52.020;4.714;2023-02-26T18:36:28;4.80;68.20
22787;DHT22;63134;52.020;4.714;2023-02-26T18:39:19;4.70;68.50
22787;DHT22;63134;52.020;4.714;2023-02-26T18:42:04;4.70;68.80
22787;DHT22;63134;52.020;4.714;2023-02-26T18:44:50;4.70;69.00
22787;DHT22;63134;52.020;4.714;2023-02-26T18:47:39;4.60;69.20
22787;DHT22;63134;52.020;4.714;2023-02-26T18:50:24;4.60;69.40
22787;DHT22;63134;52.020;4.714;2023-02-26T18:53:11;4.50;69.40
22787;DHT22;63134;52.020;4.714;2023-02-26T18:55:58;4.50;69.50
22787;DHT22;63134;52.020;4.714;2023-02-26T18:58:49;4.50;69.50
22787;DHT22;63134;52.020;4.714;2023-02-26T19:01:35;4.40;69.70
22787;DHT22;63134;52.020;4.714;2023-02-26T19:04:21;4.40;70.00
22787;DHT22;63134;52.020;4.714;2023-02-26T19:07:07;4.30;70.20
22787;DHT22;63134;52.020;4.714;2023-02-26T19:09:53;4.30;70.50
22787;DHT22;63134;52.020;4.714;2023-02-26T19:12:38;4.30;70.60
22787;DHT22;63134;52.020;4.714;2023-02-26T19:15:24;4.30;71.00
22787;DHT22;63134;52.020;4.714;2023-02-26T19:18:10;4.20;70.70
22787;DHT22;63134;52.020;4.714;2023-02-26T19:20:57;4.20;71.60
22787;DHT22;63134;52.020;4.714;2023-02-26T19:23:43;4.10;72.00
22787;DHT22;63134;52.020;4.714;2023-02-26T19:26:35;4.10;72.20
22787;DHT22;63134;52.020;4.714;2023-02-26T19:29:21;4.10;72.60
22787;DHT22;63134;52.020;4.714;2023-02-26T19:32:07;4.10;73.60
22787;DHT22;63134;52.020;4.714;2023-02-26T19:34:53;4.10;73.90
22787;DHT22;63134;52.020;4.714;2023-02-26T19:37:39;4.20;74.00
22787;DHT22;63134;52.020;4.714;2023-02-26T19:40:30;4.30;74.10
22787;DHT22;63134;52.020;4.714;2023-02-26T19:43:16;4.30;74.30
22787;DHT22;63134;52.020;4.714;2023-02-26T19:46:02;4.40;74.40
22787;DHT22;63134;52.020;4.714;2023-02-26T19:48:48;4.50;74.30
22787;DHT22;63134;52.020;4.714;2023-02-26T19:51:34;4.60;74.30
22787;DHT22;63134;52.020;4.714;2023-02-26T19:54:20;4.60;74.20
22787;DHT22;63134;52.020;4.714;2023-02-26T19:57:08;4.70;74.10
22787;DHT22;63134;52.020;4.714;2023-02-26T19:59:53;4.60;73.50
22787;DHT22;63134;52.020;4.714;2023-02-26T20:02:44;4.70;73.70
22787;DHT22;63134;52.020;4.714;2023-02-26T20:05:30;4.60;73.40
22787;DHT22;63134;52.020;4.714;2023-02-26T20:08:20;4.50;73.30
22787;DHT22;63134;52.020;4.714;2023-02-26T20:11:07;4.50;73.30
22787;DHT22;63134;52.020;4.714;2023-02-26T20:14:05;4.40;73.50
22787;DHT22;63134;52.020;4.714;2023-02-26T20:16:52;4.30;73.60
22787;DHT22;63134;52.020;4.714;2023-02-26T20:19:39;4.30;74.00
22787;DHT22;63134;52.020;4.714;2023-02-26T20:22:26;4.30;74.00
22787;DHT22;63134;52.020;4.714;2023-02-26T20:25:11;4.30;74.40
22787;DHT22;63134;52.020;4.714;2023-02-26T20:27:59;4.30;74.50
22787;DHT22;63134;52.020;4.714;2023-02-26T20:30:46;4.30;74.50
22787;DHT22;63134;52.020;4.714;2023-02-26T20:33:32;4.30;74.60
22787;DHT22;63134;52.020;4.714;2023-02-26T20:36:20;4.40;74.70
22787;DHT22;63134;52.020;4.714;2023-02-26T20:39:08;4.40;74.70
22787;DHT22;63134;52.020;4.714;2023-02-26T20:41:54;4.50;74.70
22787;DHT22;63134;52.020;4.714;2023-02-26T20:44:39;4.50;74.60